createdAt,value
2023-05-20T00:03:35.959Z,17.07
2023-05-20T00:06:04.652Z,17.04
2023-05-20T00:08:32.733Z,17.00
2023-05-20T00:11:01.082Z,16.98
2023-05-20T00:13:29.470Z,16.94
2023-05-20T00:15:57.564Z,16.92
2023-05-20T00:18:25.798Z,16.88
2023-05-20T00:20:53.930Z,16.85
2023-05-20T00:23:22.423Z,16.83
2023-05-20T00:25:51.163Z,16.81
2023-05-20T00:28:19.239Z,16.79
2023-05-20T00:30:47.391Z,16.77
2023-05-20T00:33:16.240Z,16.75
2023-05-20T00:35:44.869Z,16.73
2023-05-20T00:38:13.097Z,16.71
2023-05-20T00:40:41.507Z,16.69
2023-05-20T00:43:10.008Z,16.67
2023-05-20T00:45:38.827Z,16.65
2023-05-20T00:48:07.754Z,16.62
2023-05-20T00:50:36.775Z,16.60
2023-05-20T00:53:06.390Z,16.58
2023-05-20T00:55:35.687Z,16.56
2023-05-20T00:58:04.377Z,16.54
2023-05-20T01:00:32.837Z,16.52
2023-05-20T01:03:01.354Z,16.50
2023-05-20T01:05:29.827Z,16.47
2023-05-20T01:07:58.184Z,16.45
2023-05-20T01:10:29.302Z,16.42
2023-05-20T01:13:01.914Z,16.39
2023-05-20T01:15:32.079Z,16.36
2023-05-20T01:18:03.613Z,16.32
2023-05-20T01:20:33.410Z,16.29
2023-05-20T01:23:02.064Z,16.26
2023-05-20T01:25:30.381Z,16.22
2023-05-20T01:27:58.868Z,16.20
2023-05-20T01:30:33.353Z,16.18
2023-05-20T01:33:11.005Z,16.15
2023-05-20T01:35:41.572Z,16.13
2023-05-20T01:38:10.075Z,16.11
2023-05-20T01:40:39.522Z,16.10
2023-05-20T01:43:08.470Z,16.06
2023-05-20T01:45:36.910Z,16.04
2023-05-20T01:48:05.828Z,16.03
2023-05-20T01:50:34.133Z,16.00
2023-05-20T01:53:02.243Z,15.98
2023-05-20T01:55:30.629Z,15.97
2023-05-20T01:57:58.856Z,15.95
2023-05-20T02:00:27.038Z,15.94
2023-05-20T02:02:55.586Z,15.93
2023-05-20T02:05:24.252Z,15.92
2023-05-20T02:07:52.640Z,15.91
2023-05-20T02:10:21.157Z,15.89
2023-05-20T02:12:49.682Z,15.88
2023-05-20T02:15:18.363Z,15.87
2023-05-20T02:17:47.528Z,15.86
2023-05-20T02:20:15.789Z,15.84
2023-05-20T02:22:43.965Z,15.83
2023-05-20T02:25:12.684Z,15.81
2023-05-20T02:27:41.076Z,15.79
2023-05-20T02:30:09.645Z,15.78
2023-05-20T02:32:37.907Z,15.78
2023-05-20T02:35:06.443Z,15.78
2023-05-20T02:37:34.724Z,15.77
2023-05-20T02:40:03.076Z,15.75
2023-05-20T02:42:31.380Z,15.74
2023-05-20T02:44:59.535Z,15.72
2023-05-20T02:47:27.933Z,15.70
2023-05-20T02:49:56.576Z,15.69
2023-05-20T02:52:24.728Z,15.67
2023-05-20T02:54:53.217Z,15.65
2023-05-20T02:57:21.624Z,15.63
2023-05-20T02:59:49.904Z,15.60
2023-05-20T03:02:18.293Z,15.58
2023-05-20T03:04:47.270Z,15.56
2023-05-20T03:07:15.636Z,15.55
2023-05-20T03:09:44.024Z,15.53
2023-05-20T03:12:12.574Z,15.51
2023-05-20T03:14:40.862Z,15.51
2023-05-20T03:17:10.071Z,15.50
2023-05-20T03:19:38.214Z,15.48
2023-05-20T03:22:06.505Z,15.47
2023-05-20T03:24:35.139Z,15.46
2023-05-20T03:27:03.268Z,15.45
2023-05-20T03:29:31.576Z,15.44
2023-05-20T03:31:59.941Z,15.43
2023-05-20T03:34:28.408Z,15.42
2023-05-20T03:36:56.749Z,15.41
2023-05-20T03:39:24.966Z,15.39
2023-05-20T03:41:53.197Z,15.38
2023-05-20T03:44:21.426Z,15.38
2023-05-20T03:46:49.776Z,15.38
2023-05-20T03:49:19.900Z,15.35
2023-05-20T03:51:48.656Z,15.33
2023-05-20T03:54:16.896Z,15.30
2023-05-20T03:56:45.162Z,15.30
2023-05-20T03:59:13.354Z,15.29
2023-05-20T04:01:41.632Z,15.29
2023-05-20T04:04:10.901Z,15.28
2023-05-20T04:06:39.310Z,15.28
2023-05-20T04:09:07.739Z,15.27
2023-05-20T04:11:36.196Z,15.26
2023-05-20T04:14:04.458Z,15.25
2023-05-20T04:16:33.234Z,15.25
2023-05-20T04:19:01.664Z,15.25
2023-05-20T04:21:30.132Z,15.25
2023-05-20T04:23:59.078Z,15.26
2023-05-20T04:26:27.828Z,15.25
2023-05-20T04:28:56.446Z,15.25
2023-05-20T04:31:25.903Z,15.25
2023-05-20T04:33:54.887Z,15.25
2023-05-20T04:36:23.335Z,15.27
2023-05-20T04:38:51.712Z,15.27
2023-05-20T04:41:19.908Z,15.28
2023-05-20T04:43:48.059Z,15.29
2023-05-20T04:46:17.168Z,15.29
2023-05-20T04:48:45.371Z,15.30
2023-05-20T04:51:13.721Z,15.32
2023-05-20T04:53:43.166Z,15.33
2023-05-20T04:56:12.534Z,15.33
2023-05-20T04:58:40.753Z,15.36
2023-05-20T05:01:09.235Z,15.37
2023-05-20T05:03:37.512Z,15.38
2023-05-20T05:06:05.953Z,15.41
2023-05-20T05:08:34.124Z,15.44
2023-05-20T05:11:05.237Z,15.46
2023-05-20T05:13:33.964Z,15.48
2023-05-20T05:16:03.473Z,15.51
2023-05-20T05:18:31.750Z,15.55
2023-05-20T05:21:02.847Z,15.58
2023-05-20T05:23:32.244Z,15.61
2023-05-20T05:26:00.750Z,15.63
2023-05-20T05:28:29.469Z,15.66
2023-05-20T05:30:57.661Z,15.68
2023-05-20T05:33:26.394Z,15.71
2023-05-20T05:35:54.892Z,15.73
2023-05-20T05:38:23.287Z,15.76
2023-05-20T05:40:51.708Z,15.79
2023-05-20T05:43:20.047Z,15.82
2023-05-20T05:45:48.224Z,15.85
2023-05-20T05:48:16.454Z,15.89
2023-05-20T05:50:46.613Z,15.94
2023-05-20T05:53:14.753Z,15.99
2023-05-20T05:55:42.950Z,16.03
2023-05-20T05:58:11.473Z,16.07
2023-05-20T06:00:39.669Z,16.12
2023-05-20T06:03:08.089Z,16.17
2023-05-20T06:05:36.659Z,16.23
2023-05-20T06:08:05.666Z,16.29
2023-05-20T06:10:34.291Z,16.35
2023-05-20T06:13:02.445Z,16.42
2023-05-20T06:15:30.681Z,16.48
2023-05-20T06:17:59.125Z,16.57
2023-05-20T06:20:27.647Z,16.65
2023-05-20T06:22:56.356Z,16.76
2023-05-20T06:25:25.358Z,16.87
2023-05-20T06:27:54.672Z,16.97
2023-05-20T06:30:23.040Z,17.09
2023-05-20T06:32:51.329Z,17.20
2023-05-20T06:35:20.172Z,17.32
2023-05-20T06:37:49.166Z,17.45
2023-05-20T06:40:19.152Z,17.57
2023-05-20T06:42:47.672Z,17.70
2023-05-20T06:45:16.769Z,17.84
2023-05-20T06:47:45.845Z,17.96
2023-05-20T06:50:14.033Z,18.11
2023-05-20T06:52:42.149Z,18.26
2023-05-20T06:55:10.655Z,18.41
2023-05-20T06:57:39.371Z,18.55
2023-05-20T07:00:09.154Z,18.71
2023-05-20T07:02:37.428Z,18.88
2023-05-20T07:05:06.107Z,19.06
2023-05-20T07:07:34.252Z,19.21
2023-05-20T07:10:02.442Z,19.37
2023-05-20T07:12:30.627Z,19.53
2023-05-20T07:14:58.837Z,19.69
2023-05-20T07:17:27.552Z,19.85
2023-05-20T07:19:56.656Z,20.02
2023-05-20T07:22:25.033Z,20.17
2023-05-20T07:24:53.214Z,20.30
2023-05-20T07:27:22.698Z,20.44
2023-05-20T07:29:51.456Z,20.58
2023-05-20T07:32:20.758Z,20.68
2023-05-20T07:34:49.062Z,20.72
2023-05-20T07:37:17.222Z,20.79
2023-05-20T07:39:45.932Z,20.90
2023-05-20T07:42:16.667Z,21.01
2023-05-20T07:44:45.556Z,21.12
2023-05-20T07:47:14.264Z,21.24
2023-05-20T07:49:42.678Z,21.37
2023-05-20T07:52:11.634Z,21.50
2023-05-20T07:54:39.730Z,21.59
2023-05-20T07:57:08.151Z,21.65
2023-05-20T07:59:36.291Z,21.72
2023-05-20T08:02:05.072Z,21.76
2023-05-20T08:04:33.559Z,21.76
2023-05-20T08:07:03.815Z,21.70
2023-05-20T08:09:34.578Z,21.66
2023-05-20T08:12:03.756Z,21.57
2023-05-20T08:14:31.997Z,21.47
2023-05-20T08:17:00.554Z,21.45
2023-05-20T08:19:28.914Z,21.46
2023-05-20T08:21:57.164Z,21.50
2023-05-20T08:24:25.715Z,21.59
2023-05-20T08:26:53.887Z,21.68
2023-05-20T08:29:22.146Z,21.79
2023-05-20T08:31:50.386Z,21.92
2023-05-20T08:34:21.573Z,22.00
2023-05-20T08:36:49.778Z,22.00
2023-05-20T08:39:17.870Z,22.00
2023-05-20T08:41:47.572Z,22.04
2023-05-20T08:44:18.238Z,22.11
2023-05-20T08:46:47.731Z,22.14
2023-05-20T08:49:20.191Z,22.20
2023-05-20T08:51:48.400Z,22.25
2023-05-20T08:54:17.108Z,22.30
2023-05-20T08:56:45.536Z,22.36
2023-05-20T08:59:14.794Z,22.43
2023-05-20T09:01:44.741Z,22.48
2023-05-20T09:04:13.755Z,22.52
2023-05-20T09:06:46.808Z,22.57
2023-05-20T09:09:16.050Z,22.63
2023-05-20T09:11:44.314Z,22.71
2023-05-20T09:14:12.904Z,22.74
2023-05-20T09:16:41.626Z,22.74
2023-05-20T09:19:10.956Z,22.75
2023-05-20T09:21:41.906Z,22.73
2023-05-20T09:24:10.605Z,22.76
2023-05-20T09:26:38.994Z,22.82
2023-05-20T09:29:07.586Z,22.90
2023-05-20T09:31:37.128Z,22.96
2023-05-20T09:34:05.802Z,22.96
2023-05-20T09:36:35.629Z,22.94
2023-05-20T09:39:04.518Z,22.85
2023-05-20T09:41:56.001Z,22.73
2023-05-20T09:44:24.859Z,22.69
2023-05-20T09:46:54.405Z,22.70
2023-05-20T09:49:25.317Z,22.76
2023-05-20T09:51:54.052Z,22.86
2023-05-20T09:54:23.785Z,23.01
2023-05-20T09:56:53.909Z,23.20
2023-05-20T09:59:23.822Z,23.38
2023-05-20T10:01:51.989Z,23.53
2023-05-20T10:04:21.568Z,23.64
2023-05-20T10:07:33.972Z,23.74
2023-05-20T10:10:31.012Z,23.94
2023-05-20T10:13:13.363Z,24.11
2023-05-20T10:16:10.032Z,24.22
2023-05-20T10:18:59.182Z,24.37
2023-05-20T10:21:27.763Z,24.52
2023-05-20T10:24:06.687Z,24.61
2023-05-20T10:26:41.045Z,24.59
2023-05-20T10:29:20.012Z,24.46
2023-05-20T10:31:53.158Z,24.26
2023-05-20T10:34:23.527Z,24.16
2023-05-20T10:36:59.491Z,24.15
2023-05-20T10:39:32.413Z,24.13
2023-05-20T10:42:11.605Z,24.19
2023-05-20T10:44:45.597Z,24.36
2023-05-20T10:49:46.851Z,24.64
2023-05-20T10:52:17.097Z,24.70
2023-05-20T10:54:55.834Z,24.61
2023-05-20T10:57:27.102Z,24.53
2023-05-20T10:59:58.817Z,24.49
2023-05-20T11:02:28.019Z,24.42
2023-05-20T11:04:57.100Z,24.45
2023-05-20T11:07:31.256Z,24.41
2023-05-20T11:09:59.809Z,24.39
2023-05-20T11:12:28.475Z,24.36
2023-05-20T11:14:59.869Z,24.25
2023-05-20T11:17:28.423Z,24.20
2023-05-20T11:19:59.761Z,24.21
2023-05-20T11:22:28.027Z,24.27
2023-05-20T11:24:56.443Z,24.35
2023-05-20T11:27:24.941Z,24.41
2023-05-20T11:29:53.359Z,24.41
2023-05-20T11:32:21.606Z,24.43
2023-05-20T11:34:54.375Z,24.53
2023-05-20T11:37:24.395Z,24.54
2023-05-20T11:40:07.233Z,24.52
2023-05-20T11:42:37.014Z,24.47
2023-05-20T11:45:05.655Z,24.46
2023-05-20T11:47:34.446Z,24.74
2023-05-20T11:50:04.251Z,25.33
2023-05-20T11:52:34.518Z,25.81
2023-05-20T11:55:03.978Z,25.99
2023-05-20T11:57:32.162Z,26.07
2023-05-20T12:00:01.009Z,26.01
2023-05-20T12:02:29.472Z,25.89
2023-05-20T12:04:58.147Z,25.78
2023-05-20T12:07:26.642Z,25.74
2023-05-20T12:09:54.844Z,25.77
2023-05-20T12:12:22.969Z,25.81
2023-05-20T12:14:51.393Z,25.88
2023-05-20T12:17:19.786Z,25.90
2023-05-20T12:19:49.643Z,25.88
2023-05-20T12:22:17.920Z,25.73
2023-05-20T12:24:46.038Z,25.65
2023-05-20T12:27:14.361Z,25.67
2023-05-20T12:29:42.835Z,25.76
2023-05-20T12:32:11.191Z,25.89
2023-05-20T12:34:39.661Z,26.00
2023-05-20T12:37:08.000Z,26.15
2023-05-20T12:39:36.261Z,26.35
2023-05-20T12:42:04.587Z,26.51
2023-05-20T12:44:33.389Z,26.50
2023-05-20T12:47:01.570Z,26.41
2023-05-20T12:49:29.982Z,26.26
2023-05-20T12:51:59.888Z,26.00
2023-05-20T12:54:29.856Z,25.88
2023-05-20T12:56:58.848Z,25.80
2023-05-20T12:59:27.074Z,25.67
2023-05-20T13:01:55.398Z,25.52
2023-05-20T13:04:24.100Z,25.32
2023-05-20T13:06:52.710Z,25.08
2023-05-20T13:09:21.159Z,24.79
2023-05-20T13:11:49.980Z,24.64
2023-05-20T13:14:18.365Z,24.56
2023-05-20T13:16:46.954Z,24.57
2023-05-20T13:19:16.287Z,24.70
2023-05-20T13:21:44.506Z,24.80
2023-05-20T13:24:12.757Z,24.87
2023-05-20T13:26:41.170Z,24.97
2023-05-20T13:29:09.552Z,24.97
2023-05-20T13:31:38.409Z,24.92
2023-05-20T13:34:06.804Z,25.00
2023-05-20T13:36:34.891Z,25.05
2023-05-20T13:39:02.984Z,24.93
2023-05-20T13:41:31.301Z,24.91
2023-05-20T13:43:59.523Z,25.08
2023-05-20T13:46:27.790Z,25.23
2023-05-20T13:48:56.118Z,25.25
2023-05-20T13:51:24.371Z,25.09
2023-05-20T13:53:52.464Z,24.82
2023-05-20T13:56:21.088Z,24.57
2023-05-20T13:58:49.327Z,24.30
2023-05-20T14:01:17.550Z,24.07
2023-05-20T14:03:46.012Z,23.88
2023-05-20T14:06:14.512Z,23.66
2023-05-20T14:08:42.823Z,23.49
2023-05-20T14:11:11.496Z,23.32
2023-05-20T14:13:41.142Z,23.16
2023-05-20T14:16:09.289Z,23.00
2023-05-20T14:18:38.009Z,22.85
2023-05-20T14:21:06.400Z,22.71
2023-05-20T14:23:34.490Z,22.62
2023-05-20T14:26:02.905Z,22.55
2023-05-20T14:28:31.078Z,22.50
2023-05-20T14:30:59.224Z,22.44
2023-05-20T14:33:28.369Z,22.42
2023-05-20T14:35:57.181Z,22.44
2023-05-20T14:38:25.393Z,22.52
2023-05-20T14:40:53.878Z,22.66
2023-05-20T14:43:22.255Z,22.80
2023-05-20T14:45:50.670Z,23.00
2023-05-20T14:48:19.109Z,23.17
2023-05-20T14:50:48.992Z,23.27
2023-05-20T14:53:18.141Z,23.38
2023-05-20T14:55:48.096Z,23.43
2023-05-20T14:58:16.377Z,23.50
2023-05-20T15:00:44.604Z,23.59
2023-05-20T15:03:12.966Z,23.67
2023-05-20T15:05:41.335Z,23.71
2023-05-20T15:08:09.571Z,23.76
2023-05-20T15:10:38.345Z,23.89
2023-05-20T15:13:06.741Z,24.07
2023-05-20T15:15:34.921Z,24.21
2023-05-20T15:18:03.386Z,24.29
2023-05-20T15:20:31.663Z,24.40
2023-05-20T15:23:01.058Z,24.52
2023-05-20T15:25:29.441Z,24.54
2023-05-20T15:27:57.604Z,24.46
2023-05-20T15:30:25.763Z,24.34
2023-05-20T15:32:54.271Z,24.13
2023-05-20T15:35:22.624Z,23.97
2023-05-20T15:37:50.825Z,23.84
2023-05-20T15:40:19.103Z,23.71
2023-05-20T15:42:47.265Z,23.48
2023-05-20T15:45:15.597Z,23.23
2023-05-20T15:47:44.740Z,23.07
2023-05-20T15:50:13.032Z,22.93
2023-05-20T15:52:41.938Z,22.80
2023-05-20T15:55:10.589Z,22.69
2023-05-20T15:57:38.880Z,22.60
2023-05-20T16:00:07.744Z,22.51
2023-05-20T16:02:36.795Z,22.40
2023-05-20T16:05:05.762Z,22.32
2023-05-20T16:07:33.876Z,22.23
2023-05-20T16:10:02.463Z,22.16
2023-05-20T16:12:30.715Z,22.11
2023-05-20T16:14:58.949Z,22.05
2023-05-20T16:17:27.493Z,21.98
2023-05-20T16:19:55.732Z,21.93
2023-05-20T16:22:24.018Z,21.88
2023-05-20T16:24:52.654Z,21.82
2023-05-20T16:27:20.883Z,21.73
2023-05-20T16:29:50.429Z,21.63
2023-05-20T16:32:18.966Z,21.52
2023-05-20T16:34:47.170Z,21.40
2023-05-20T16:37:15.720Z,21.26
2023-05-20T16:39:44.462Z,21.12
2023-05-20T16:42:12.570Z,20.99
2023-05-20T16:44:40.754Z,20.90
2023-05-20T16:47:09.460Z,20.83
2023-05-20T16:49:37.880Z,20.78
2023-05-20T16:52:06.835Z,20.73
2023-05-20T16:54:37.953Z,20.69
2023-05-20T16:57:06.139Z,20.66
2023-05-20T16:59:35.304Z,20.63
2023-05-20T17:02:04.370Z,20.57
2023-05-20T17:04:33.210Z,20.49
2023-05-20T17:07:01.879Z,20.42
2023-05-20T17:09:31.277Z,20.34
2023-05-20T17:12:01.466Z,20.28
2023-05-20T17:14:29.881Z,20.23
2023-05-20T17:16:58.547Z,20.18
2023-05-20T17:19:26.921Z,20.13
2023-05-20T17:21:55.225Z,20.06
2023-05-20T17:24:23.565Z,20.02
2023-05-20T17:26:52.047Z,19.99
2023-05-20T17:29:20.460Z,19.99
2023-05-20T17:31:49.243Z,20.00
2023-05-20T17:34:19.482Z,20.01
2023-05-20T17:36:48.529Z,20.03
2023-05-20T17:39:18.236Z,20.07
2023-05-20T17:41:46.521Z,20.12
2023-05-20T17:44:15.290Z,20.16
2023-05-20T17:46:44.235Z,20.20
2023-05-20T17:49:13.338Z,20.23
2023-05-20T17:51:41.935Z,20.26
2023-05-20T17:54:12.303Z,20.30
2023-05-20T17:56:40.951Z,20.33
2023-05-20T17:59:09.006Z,20.36
2023-05-20T18:01:37.550Z,20.37
2023-05-20T18:04:06.441Z,20.38
2023-05-20T18:06:36.452Z,20.40
2023-05-20T18:09:05.187Z,20.41
2023-05-20T18:11:34.257Z,20.42
2023-05-20T18:14:02.804Z,20.43
2023-05-20T18:16:31.705Z,20.43
2023-05-20T18:18:59.982Z,20.42
2023-05-20T18:21:28.367Z,20.41
2023-05-20T18:23:58.184Z,20.40
2023-05-20T18:26:27.759Z,20.38
2023-05-20T18:28:56.013Z,20.37
2023-05-20T18:31:24.550Z,20.35
2023-05-20T18:33:52.893Z,20.34
2023-05-20T18:36:21.663Z,20.31
2023-05-20T18:38:49.959Z,20.29
2023-05-20T18:41:18.665Z,20.27
2023-05-20T18:43:46.920Z,20.24
2023-05-20T18:46:16.187Z,20.22
2023-05-20T18:48:44.861Z,20.21
2023-05-20T18:51:13.057Z,20.19
2023-05-20T18:53:41.412Z,20.17
2023-05-20T18:56:09.551Z,20.15
2023-05-20T18:58:38.148Z,20.12
2023-05-20T19:01:07.052Z,20.09
2023-05-20T19:03:38.659Z,20.07
2023-05-20T19:06:07.156Z,20.05
2023-05-20T19:08:35.365Z,20.03
2023-05-20T19:11:03.633Z,20.00
2023-05-20T19:13:31.957Z,19.97
2023-05-20T19:16:00.733Z,19.95
2023-05-20T19:18:29.190Z,19.92
2023-05-20T19:20:57.493Z,19.91
2023-05-20T19:23:25.689Z,19.89
2023-05-20T19:25:54.150Z,19.88
2023-05-20T19:28:22.473Z,19.87
2023-05-20T19:30:50.819Z,19.87
2023-05-20T19:33:20.931Z,19.86
2023-05-20T19:35:49.395Z,19.85
2023-05-20T19:38:18.393Z,19.84
2023-05-20T19:40:46.914Z,19.83
2023-05-20T19:43:15.362Z,19.83
2023-05-20T19:45:43.787Z,19.82
2023-05-20T19:48:12.319Z,19.81
2023-05-20T19:50:42.912Z,19.79
2023-05-20T19:53:11.130Z,19.79
2023-05-20T19:55:40.597Z,19.79
2023-05-20T19:58:09.434Z,19.78
2023-05-20T20:00:37.951Z,19.77
2023-05-20T20:03:07.694Z,19.75
2023-05-20T20:05:36.134Z,19.74
2023-05-20T20:08:04.867Z,19.72
2023-05-20T20:10:33.093Z,19.70
2023-05-20T20:13:01.829Z,19.69
2023-05-20T20:15:30.182Z,19.68
2023-05-20T20:17:58.919Z,19.66
2023-05-20T20:20:27.197Z,19.65
2023-05-20T20:22:55.397Z,19.63
2023-05-20T20:25:23.523Z,19.62
2023-05-20T20:27:52.108Z,19.61
2023-05-20T20:30:20.535Z,19.58
2023-05-20T20:32:48.739Z,19.55
2023-05-20T20:35:17.177Z,19.52
2023-05-20T20:37:45.443Z,19.50
2023-05-20T20:40:14.136Z,19.48
2023-05-20T20:42:43.230Z,19.45
2023-05-20T20:45:12.157Z,19.42
2023-05-20T20:47:40.506Z,19.39
2023-05-20T20:50:14.770Z,19.37
2023-05-20T20:52:43.205Z,19.34
2023-05-20T20:55:11.474Z,19.32
2023-05-20T20:57:40.162Z,19.28
2023-05-20T21:00:08.858Z,19.25
2023-05-20T21:02:37.254Z,19.21
2023-05-20T21:05:05.917Z,19.18
2023-05-20T21:07:34.502Z,19.14
2023-05-20T21:10:02.696Z,19.11
2023-05-20T21:12:31.020Z,19.08
2023-05-20T21:14:59.201Z,19.06
2023-05-20T21:17:28.026Z,19.03
2023-05-20T21:19:56.371Z,19.00
2023-05-20T21:22:24.618Z,18.97
2023-05-20T21:24:52.893Z,18.94
2023-05-20T21:27:21.307Z,18.92
2023-05-20T21:29:49.536Z,18.90
2023-05-20T21:32:17.801Z,18.87
2023-05-20T21:34:46.214Z,18.83
2023-05-20T21:37:14.469Z,18.79
2023-05-20T21:39:42.792Z,18.76
2023-05-20T21:42:11.298Z,18.73
2023-05-20T21:44:40.002Z,18.71
2023-05-20T21:47:08.145Z,18.70
2023-05-20T21:49:36.402Z,18.67
2023-05-20T21:52:04.820Z,18.65
2023-05-20T21:54:33.020Z,18.63
2023-05-20T21:57:01.477Z,18.62
2023-05-20T21:59:29.950Z,18.61
2023-05-20T22:01:58.449Z,18.59
2023-05-20T22:04:27.309Z,18.58
2023-05-20T22:06:56.394Z,18.57
2023-05-20T22:09:25.048Z,18.55
2023-05-20T22:11:55.236Z,18.53
2023-05-20T22:14:23.350Z,18.52
2023-05-20T22:16:51.557Z,18.50
2023-05-20T22:19:19.833Z,18.48
2023-05-20T22:21:50.523Z,18.47
2023-05-20T22:24:19.533Z,18.45
2023-05-20T22:26:47.825Z,18.44
2023-05-20T22:29:17.553Z,18.41
2023-05-20T22:31:46.222Z,18.39
2023-05-20T22:34:14.758Z,18.38
2023-05-20T22:36:42.917Z,18.36
2023-05-20T22:39:11.374Z,18.33
2023-05-20T22:41:39.585Z,18.32
2023-05-20T22:44:07.784Z,18.30
2023-05-20T22:46:36.120Z,18.28
2023-05-20T22:49:04.330Z,18.26
2023-05-20T22:51:32.830Z,18.26
2023-05-20T22:54:01.012Z,18.24
2023-05-20T22:56:29.276Z,18.22
2023-05-20T22:58:57.340Z,18.20
2023-05-20T23:01:25.808Z,18.18
2023-05-20T23:03:54.217Z,18.17
2023-05-20T23:06:22.662Z,18.14
2023-05-20T23:08:51.151Z,18.13
2023-05-20T23:11:19.705Z,18.12
2023-05-20T23:13:47.907Z,18.09
2023-05-20T23:16:16.151Z,18.07
2023-05-20T23:18:44.480Z,18.04
2023-05-20T23:21:13.455Z,18.01
2023-05-20T23:23:41.606Z,17.99
2023-05-20T23:26:10.002Z,17.96
2023-05-20T23:28:39.678Z,17.93
2023-05-20T23:31:08.164Z,17.91
2023-05-20T23:33:36.674Z,17.88
2023-05-20T23:36:05.359Z,17.86
2023-05-20T23:38:33.528Z,17.84
2023-05-20T23:41:02.303Z,17.82
2023-05-20T23:43:30.570Z,17.79
2023-05-20T23:45:58.781Z,17.76
2023-05-20T23:48:27.545Z,17.75
2023-05-20T23:50:57.544Z,17.72
2023-05-20T23:53:27.481Z,17.70
2023-05-20T23:55:55.915Z,17.67
2023-05-20T23:58:24.190Z,17.64
